Terminal Aerodrome Forecast
Issued by NWS Melbourne, FL

Home | Current Version | Previous Version | Text Only | Print | Product List | Glossary On
Versions: 1 2 3 4 5 6 7 8 9 10 11 12 13 14 15 16 17 18 19
000
FTUS42 KMLB 211722 CCA
TAFMLB
TAF COR
KMLB 211722Z 2118/2218 13013G18KT P6SM VCSH FEW010 SCT025 BKN035
      TEMPO 2118/2121 SHRA BKN006
     FM212100 11010KT P6SM -RA SCT025 BKN035 OVC060
     FM220000 11007KT P6SM VCSH SCT020 BKN040 OVC060
     FM221400 12010KT P6SM VCSH SCT025 BKN050 OVC080=

USA.gov is the U.S. government's official web portal to all federal, state and local government web resources and services.